Time;durP1;ratioP1;P1;durP2;ratioP2;P2;SDS_P1;SDS_P2;PMS_P1;PMS_P2;Temp;Humidity;BMP_temperature;BMP_pressure;BME280_temperature;BME280_humidity;BME280_pressure;Samples;Min_cycle;Max_cycle;Signal;HPM_P1;HPM_P2
2022/05/27 00:01:59;;;;;;;30.73;29.08;;;;;;;22.45;47.69;101896.50;5019981;28;20042;-81
2022/05/27 00:04:25;;;;;;;31.13;29.48;;;;;;;22.44;47.67;101901.19;5023189;28;20511;-81
2022/05/27 00:06:50;;;;;;;28.58;27.08;;;;;;;22.43;47.55;101899.56;5029543;28;20034;-81
2022/05/27 00:09:15;;;;;;;29.08;27.50;;;;;;;22.42;47.06;101899.84;5038845;28;20099;-81
2022/05/27 00:11:41;;;;;;;32.03;30.35;;;;;;;22.43;47.19;101896.00;5032288;28;20033;-81
2022/05/27 00:14:06;;;;;;;32.20;30.52;;;;;;;22.44;47.67;101895.69;5030872;28;20037;-81
2022/05/27 00:16:32;;;;;;;28.58;27.08;;;;;;;22.43;47.81;101879.47;5022309;28;20387;-80
2022/05/27 00:18:58;;;;;;;30.33;28.73;;;;;;;22.43;47.88;101882.22;5035835;28;20040;-82
2022/05/27 00:21:25;;;;;;;30.20;28.20;;;;;;;22.44;48.11;101886.63;5021433;28;20025;-77
2022/05/27 00:23:51;;;;;;;29.17;27.65;;;;;;;22.43;48.51;101885.00;5027258;28;20034;-78
2022/05/27 00:26:16;;;;;;;28.55;27.13;;;;;;;22.42;48.36;101886.09;5012204;28;20100;-79
2022/05/27 00:28:42;;;;;;;30.40;28.25;;;;;;;22.47;48.45;101886.81;5033195;28;20064;-79
2022/05/27 00:31:07;;;;;;;29.00;27.55;;;;;;;22.53;48.34;101884.84;5026114;28;20034;-80
2022/05/27 00:33:34;;;;;;;30.00;28.40;;;;;;;22.52;48.13;101885.13;5038326;28;20480;-80
2022/05/27 00:36:00;;;;;;;28.90;27.40;;;;;;;22.47;48.17;101880.50;5012793;28;20112;-80
2022/05/27 00:38:25;;;;;;;29.55;27.95;;;;;;;22.49;47.80;101889.31;5025029;28;20507;-79
2022/05/27 00:40:53;;;;;;;29.27;27.77;;;;;;;22.54;47.72;101880.16;5036162;28;20048;-80
2022/05/27 00:43:19;;;;;;;32.08;30.38;;;;;;;22.55;47.79;101879.03;5031231;28;20044;-80
2022/05/27 00:45:55;;;;;;;30.33;28.42;;;;;;;22.57;47.41;101874.88;5021178;28;20553;-80
2022/05/27 00:48:21;;;;;;;31.10;29.40;;;;;;;22.58;47.81;101876.53;5026570;28;20029;-80
2022/05/27 00:50:49;;;;;;;31.05;29.42;;;;;;;22.57;47.50;101872.09;5030657;28;20029;-79
2022/05/27 00:53:23;;;;;;;29.67;28.00;;;;;;;22.59;47.35;101869.06;5027984;28;20034;-80
2022/05/27 00:55:53;;;;;;;31.00;29.40;;;;;;;22.59;47.49;101878.16;5033654;28;20454;-79
2022/05/27 00:58:32;;;;;;;28.55;27.15;;;;;;;22.57;47.38;101863.03;5057751;28;20086;-80
2022/05/27 01:00:59;;;;;;;29.92;28.33;;;;;;;22.57;47.54;101865.78;5026288;28;20025;-79
2022/05/27 01:03:27;;;;;;;29.63;28.02;;;;;;;22.59;47.72;101869.06;5020294;28;20038;-80
2022/05/27 01:05:54;;;;;;;30.10;28.60;;;;;;;22.59;47.04;101867.13;5051177;28;20426;-79
2022/05/27 01:08:22;;;;;;;30.17;28.58;;;;;;;22.58;47.36;101859.16;5047406;28;20123;-80
2022/05/27 01:11:03;;;;;;;29.15;27.45;;;;;;;22.56;47.55;101864.16;5052430;28;20033;-80
2022/05/27 01:13:41;;;;;;;30.27;28.67;;;;;;;22.58;47.53;101868.25;5038616;28;20041;-80
2022/05/27 01:16:19;;;;;;;;;;;;;;;22.58;47.11;101857.25;5038696;28;20033;-80
2022/05/27 01:22:06;;;;;;;30.25;28.65;;;;;;;22.55;47.20;101854.25;5038094;28;20102;-79
2022/05/27 01:24:52;;;;;;;29.88;28.25;;;;;;;22.54;47.38;101858.94;5032407;28;20576;-79
2022/05/27 01:27:33;;;;;;;29.20;27.67;;;;;;;22.52;47.05;101860.34;5030990;28;20056;-80
2022/05/27 01:30:17;;;;;;;28.05;26.45;;;;;;;22.53;47.43;101853.72;5021202;28;20124;-80
2022/05/27 01:32:51;;;;;;;28.88;27.38;;;;;;;22.51;47.06;101856.78;5040947;28;20128;-79
2022/05/27 01:35:39;;;;;;;31.83;29.85;;;;;;;22.50;47.69;101851.56;5038279;28;20079;-81
2022/05/27 01:38:26;;;;;;;29.08;27.20;;;;;;;22.48;47.45;101851.88;5034337;28;20074;-80
2022/05/27 01:41:01;;;;;;;30.15;28.23;;;;;;;22.47;47.27;101848.28;5028288;28;20109;-80
2022/05/27 01:43:35;;;;;;;29.23;27.63;;;;;;;22.47;47.47;101847.47;5043685;28;20033;-80
2022/05/27 01:46:16;;;;;;;29.75;28.15;;;;;;;22.47;47.32;101853.78;5026788;28;20033;-80
2022/05/27 01:49:09;;;;;;;27.38;26.05;;;;;;;22.47;47.64;101862.06;5021149;28;20025;-80
2022/05/27 01:51:41;;;;;;;30.30;28.52;;;;;;;22.45;47.06;101858.78;5016429;28;20041;-82
2022/05/27 01:54:38;;;;;;;28.40;26.90;;;;;;;22.45;47.36;101864.31;5031662;28;20037;-80
2022/05/27 01:57:10;;;;;;;28.25;26.75;;;;;;;22.45;47.35;101860.72;5042540;28;20044;-79
2022/05/27 01:59:49;;;;;;;29.15;27.40;;;;;;;22.45;47.63;101861.56;5029713;28;20540;-80
2022/05/27 02:02:19;;;;;;;29.50;27.73;;;;;;;22.44;47.28;101853.56;5019466;28;20048;-80
2022/05/27 02:04:52;;;;;;;29.42;27.73;;;;;;;22.43;47.14;101862.97;5043237;28;20462;-80
2022/05/27 02:07:25;;;;;;;30.63;28.83;;;;;;;22.43;47.16;101857.47;5042798;28;20108;-81
2022/05/27 02:09:59;;;;;;;30.33;28.52;;;;;;;22.42;47.11;101855.78;5037060;28;20040;-81
2022/05/27 02:12:39;;;;;;;30.67;28.98;;;;;;;22.42;47.51;101859.38;5032976;28;20053;-81
2022/05/27 02:15:13;;;;;;;29.45;27.83;;;;;;;22.41;47.27;101855.00;5013471;28;20026;-81
2022/05/27 02:17:50;;;;;;;29.50;27.75;;;;;;;22.42;47.50;101851.09;5017223;28;20582;-81
2022/05/27 02:20:29;;;;;;;29.60;28.05;;;;;;;22.40;47.24;101849.75;5048552;28;20033;-82
2022/05/27 02:22:58;;;;;;;28.58;26.98;;;;;;;22.42;47.23;101842.03;5024414;28;20052;-83
2022/05/27 02:25:34;;;;;;;30.73;29.02;;;;;;;22.43;47.42;101851.94;5033379;28;20402;-84
2022/05/27 02:28:17;;;;;;;28.92;27.33;;;;;;;22.41;47.46;101855.00;5021913;28;20037;-83
2022/05/27 02:30:49;;;;;;;29.35;27.85;;;;;;;22.42;47.52;101851.09;5034145;28;20076;-83
2022/05/27 02:36:12;;;;;;;29.63;27.70;;;;;;;22.39;47.64;101843.44;5028697;28;20504;-83
2022/05/27 02:38:38;;;;;;;31.50;29.88;;;;;;;22.38;47.61;101841.00;5017955;28;20358;-83
2022/05/27 02:41:06;;;;;;;29.90;28.40;;;;;;;22.38;47.27;101832.75;5036186;28;20039;-82
2022/05/27 02:44:07;;;;;;;31.77;29.65;;;;;;;22.39;47.79;101834.38;5035601;28;20089;-82
2022/05/27 02:46:50;;;;;;;29.77;28.08;;;;;;;22.37;47.98;101845.66;5018096;28;20033;-82
2022/05/27 02:49:31;;;;;;;28.85;27.35;;;;;;;22.39;47.63;101842.63;5030706;28;20033;-81
2022/05/27 02:52:05;;;;;;;30.23;28.63;;;;;;;22.36;47.93;101837.72;5026277;28;20427;-81
2022/05/27 02:54:52;;;;;;;29.88;28.23;;;;;;;22.36;47.92;101838.53;5037112;28;20061;-81
2022/05/27 02:57:23;;;;;;;29.52;27.77;;;;;;;22.37;47.30;101842.91;5013931;28;20041;-81
2022/05/27 02:59:51;;;;;;;30.13;28.52;;;;;;;22.35;47.98;101834.16;5027462;28;20033;-81
2022/05/27 03:02:17;;;;;;;27.83;26.45;;;;;;;22.36;47.80;101830.28;5046237;28;20098;-80
2022/05/27 03:04:54;;;;;;;30.40;28.80;;;;;;;22.37;47.51;101834.66;5039472;28;20272;-80
2022/05/27 03:07:29;;;;;;;30.88;29.10;;;;;;;22.36;47.63;101835.78;5033380;28;20030;-80
2022/05/27 03:10:09;;;;;;;29.38;27.67;;;;;;;22.35;48.02;101831.41;5038283;28;20064;-82
2022/05/27 03:12:57;;;;;;;31.83;30.13;;;;;;;22.30;48.08;101828.72;5026134;28;20055;-81
2022/05/27 03:15:43;;;;;;;30.20;28.40;;;;;;;22.32;48.26;101833.91;5018979;28;20534;-81
2022/05/27 03:18:32;;;;;;;29.50;27.77;;;;;;;22.33;48.26;101830.88;5064491;28;20072;-81
2022/05/27 03:21:12;;;;;;;29.02;27.38;;;;;;;22.34;48.40;101832.50;5044371;28;20033;-81
2022/05/27 03:24:25;;;;;;;30.23;28.50;;;;;;;22.34;47.95;101817.94;5041242;28;20025;-81
2022/05/27 03:27:02;;;;;;;30.83;29.10;;;;;;;22.35;47.93;101833.31;4992923;28;20057;-80
2022/05/27 03:29:44;;;;;;;30.73;29.02;;;;;;;22.34;48.45;101828.94;5038369;28;20029;-80
2022/05/27 03:32:25;;;;;;;30.05;28.35;;;;;;;22.34;48.14;101831.69;5029109;28;20040;-80
2022/05/27 03:34:58;;;;;;;29.83;28.23;;;;;;;22.34;47.80;101831.69;5030275;28;20101;-80
2022/05/27 03:37:36;;;;;;;30.60;28.90;;;;;;;22.32;47.83;101837.47;5013065;28;20407;-80
2022/05/27 03:40:07;;;;;;;30.60;29.00;;;;;;;22.33;47.87;101836.38;5012126;28;20033;-80
2022/05/27 03:42:35;;;;;;;31.08;29.38;;;;;;;22.33;48.22;101841.88;5025065;28;20033;-80
2022/05/27 03:45:10;;;;;;;29.40;27.90;;;;;;;22.32;48.00;101833.91;5029112;28;20037;-80
2022/05/27 03:47:37;;;;;;;30.25;28.65;;;;;;;22.33;48.04;101841.88;5031518;28;20477;-80
2022/05/27 03:50:04;;;;;;;29.45;27.85;;;;;;;22.32;47.81;101839.41;5010820;28;20042;-81
2022/05/27 03:52:44;;;;;;;30.23;28.63;;;;;;;22.28;48.25;101838.38;5016233;28;20025;-81
2022/05/27 03:55:13;;;;;;;29.02;27.42;;;;;;;22.32;47.83;101844.94;5029409;28;20040;-81
2022/05/27 03:57:38;;;;;;;30.48;28.60;;;;;;;22.31;48.14;101843.31;5012377;28;20045;-81
2022/05/27 04:00:05;;;;;;;31.40;29.60;;;;;;;22.29;47.96;101835.31;5004560;28;20453;-81
2022/05/27 04:02:31;;;;;;;29.98;28.08;;;;;;;22.28;48.31;101828.19;5044587;28;20038;-82
2022/05/27 04:04:56;;;;;;;29.48;27.88;;;;;;;22.30;48.07;101836.97;5028278;28;20394;-82
2022/05/27 04:07:22;;;;;;;30.63;29.02;;;;;;;22.30;47.95;101836.97;5031106;28;20060;-82
2022/05/27 04:09:47;;;;;;;30.77;28.90;;;;;;;22.29;48.11;101840.81;5021576;28;20042;-81
2022/05/27 04:12:13;;;;;;;29.10;27.55;;;;;;;22.29;47.98;101849.09;5027695;28;20061;-81
2022/05/27 04:14:38;;;;;;;29.10;27.60;;;;;;;22.28;48.01;101844.72;5038624;28;20041;-82
2022/05/27 04:19:48;;;;;;;30.45;28.83;;;;;;;22.30;48.09;101842.50;5049281;28;20039;-81
2022/05/27 04:22:14;;;;;;;30.45;28.65;;;;;;;22.30;48.36;101847.16;5022033;28;20041;-80
2022/05/27 04:24:39;;;;;;;30.88;29.27;;;;;;;22.28;48.12;101843.91;5035027;28;20524;-81
2022/05/27 04:27:14;;;;;;;29.23;27.65;;;;;;;22.25;48.51;101846.13;5028255;28;20057;-80
2022/05/27 04:29:41;;;;;;;29.77;28.17;;;;;;;22.28;48.48;101852.16;5029341;28;20370;-81
2022/05/27 04:32:06;;;;;;;30.92;29.25;;;;;;;22.26;48.52;101852.44;5033187;28;20068;-81
2022/05/27 04:34:32;;;;;;;30.33;28.63;;;;;;;22.25;48.70;101859.03;5035669;28;20591;-82
2022/05/27 04:36:57;;;;;;;30.60;28.90;;;;;;;22.25;48.63;101854.38;5019735;28;20041;-81
2022/05/27 04:39:23;;;;;;;31.33;29.73;;;;;;;22.25;48.59;101854.38;5011602;28;20045;-81
2022/05/27 04:41:48;;;;;;;31.35;29.58;;;;;;;22.23;48.23;101853.84;5029652;28;20041;-80
2022/05/27 04:44:13;;;;;;;30.98;29.27;;;;;;;22.24;48.57;101860.16;5023990;28;20492;-80
2022/05/27 04:46:40;;;;;;;32.45;30.55;;;;;;;22.22;48.67;101863.19;5027941;28;20037;-80
2022/05/27 04:49:05;;;;;;;30.63;28.92;;;;;;;22.23;48.45;101855.78;5009716;28;20033;-80
2022/05/27 04:51:30;;;;;;;31.08;29.38;;;;;;;22.21;48.76;101860.75;5031356;28;20045;-80
2022/05/27 04:53:56;;;;;;;31.80;29.80;;;;;;;22.22;48.78;101857.69;5023894;28;20038;-80
2022/05/27 04:56:25;;;;;;;31.05;29.35;;;;;;;22.22;48.40;101857.69;5019696;28;20041;-80
2022/05/27 04:58:50;;;;;;;31.67;29.73;;;;;;;22.23;48.58;101864.03;5043819;28;20049;-80
2022/05/27 05:01:15;;;;;;;29.73;28.13;;;;;;;22.24;48.46;101865.66;5022972;28;20034;-80
2022/05/27 05:03:41;;;;;;;31.98;30.08;;;;;;;22.23;48.32;101867.59;5015605;28;20033;-80
2022/05/27 05:06:06;;;;;;;30.83;29.08;;;;;;;22.25;48.44;101872.81;5030685;28;20036;-80
2022/05/27 05:08:33;;;;;;;30.80;29.10;;;;;;;22.24;48.43;101869.22;5037634;28;20033;-80
2022/05/27 05:11:03;;;;;;;30.27;28.60;;;;;;;22.27;48.61;101876.09;5030286;28;20033;-80
2022/05/27 05:13:30;;;;;;;29.85;28.35;;;;;;;22.25;48.37;101881.06;5026728;28;20030;-80
2022/05/27 05:15:56;;;;;;;29.17;27.58;;;;;;;22.25;48.58;101884.66;5032858;28;20131;-80
2022/05/27 05:18:21;;;;;;;28.77;27.17;;;;;;;22.25;48.30;101890.16;5017871;28;20042;-80
2022/05/27 05:20:47;;;;;;;31.10;29.33;;;;;;;22.24;48.89;101883.00;5032082;28;20037;-80
2022/05/27 05:23:12;;;;;;;31.05;29.38;;;;;;;22.25;48.50;101886.56;5029666;28;20493;-80
2022/05/27 05:25:38;;;;;;;31.10;29.25;;;;;;;22.27;48.22;101886.28;5001071;28;20101;-80
2022/05/27 05:28:03;;;;;;;30.83;28.85;;;;;;;22.24;48.79;101902.25;5036903;28;20045;-80
2022/05/27 05:30:29;;;;;;;30.20;28.60;;;;;;;22.25;48.86;101903.06;5016896;28;20557;-80
2022/05/27 05:32:54;;;;;;;30.05;28.48;;;;;;;22.25;48.45;101903.06;5030124;28;20045;-80
2022/05/27 05:35:21;;;;;;;29.50;27.80;;;;;;;22.24;48.71;101899.50;5027358;28;20521;-80
2022/05/27 05:37:46;;;;;;;32.83;30.92;;;;;;;22.24;48.75;101906.94;5039786;28;20103;-80
2022/05/27 05:40:13;;;;;;;29.13;27.52;;;;;;;22.25;48.69;101901.16;5033528;28;20454;-80
2022/05/27 05:42:39;;;;;;;29.88;28.27;;;;;;;22.27;48.73;101916.56;5028694;28;20441;-81
2022/05/27 05:45:06;;;;;;;31.08;29.48;;;;;;;22.28;48.29;101920.97;5040459;28;20026;-78
2022/05/27 05:47:32;;;;;;;30.00;28.50;;;;;;;22.27;48.44;101914.63;5032018;28;20044;-78
2022/05/27 05:49:57;;;;;;;30.00;28.40;;;;;;;22.29;48.31;101917.09;5050042;28;20063;-79
2022/05/27 05:52:22;;;;;;;29.98;28.17;;;;;;;22.26;48.33;101915.75;5045718;28;20086;-78
2022/05/27 05:54:48;;;;;;;31.08;29.48;;;;;;;22.26;48.25;101901.97;5022544;28;20033;-78
2022/05/27 05:57:13;;;;;;;30.30;28.65;;;;;;;22.27;48.61;101906.34;5027496;28;20075;-78
2022/05/27 05:59:39;;;;;;;28.88;27.40;;;;;;;22.29;48.67;101900.56;5035288;28;20401;-79
2022/05/27 06:02:05;;;;;;;30.23;28.52;;;;;;;22.25;48.86;101903.06;5018721;28;20043;-78
2022/05/27 06:04:31;;;;;;;29.30;27.77;;;;;;;22.28;48.43;101893.44;5040054;28;20033;-78
2022/05/27 06:06:57;;;;;;;30.42;28.75;;;;;;;22.27;48.38;101902.78;5032575;28;20518;-79
2022/05/27 06:09:25;;;;;;;30.85;29.08;;;;;;;22.29;48.64;101900.56;5032930;28;20037;-78
2022/05/27 06:11:55;;;;;;;31.13;29.52;;;;;;;22.27;48.93;101903.59;5021349;28;20053;-79
2022/05/27 06:14:22;;;;;;;30.73;29.02;;;;;;;22.30;48.62;101905.78;5061148;28;20087;-81
2022/05/27 06:16:47;;;;;;;31.25;29.17;;;;;;;22.28;48.68;101913.53;5033924;28;20037;-78
2022/05/27 06:19:12;;;;;;;29.77;28.08;;;;;;;22.26;48.62;101918.50;5037617;28;20117;-78
2022/05/27 06:21:38;;;;;;;31.20;29.48;;;;;;;22.28;48.64;101919.03;5046952;28;20127;-78
2022/05/27 06:24:03;;;;;;;29.90;28.30;;;;;;;22.26;48.71;101929.50;5043820;28;20071;-78
2022/05/27 06:26:30;;;;;;;29.92;28.30;;;;;;;22.26;49.27;101915.75;5025796;28;20085;-78
2022/05/27 06:34:24;;;;;;;29.83;27.80;;;;;;;22.26;48.83;101915.75;5014794;28;20398;-79
2022/05/27 06:36:56;;;;;;;29.83;28.17;;;;;;;22.27;49.01;101925.63;5023704;28;20046;-79
2022/05/27 06:39:23;;;;;;;27.92;26.52;;;;;;;22.26;49.06;101924.00;5040846;28;20496;-78
2022/05/27 06:41:50;;;;;;;30.20;28.60;;;;;;;22.25;48.78;101923.19;5016757;28;20034;-79
2022/05/27 06:44:16;;;;;;;28.38;26.88;;;;;;;22.26;48.81;101915.75;5052905;28;20390;-80
2022/05/27 06:46:42;;;;;;;29.52;27.70;;;;;;;22.24;48.69;101920.72;5039513;28;20040;-82
2022/05/27 06:49:08;;;;;;;28.98;27.42;;;;;;;22.27;48.55;101925.63;5041701;28;20041;-80
2022/05/27 06:51:37;;;;;;;29.70;28.20;;;;;;;22.25;49.02;101922.34;5045191;28;20466;-81
2022/05/27 06:54:03;;;;;;;27.23;25.73;;;;;;;22.26;48.46;101929.50;5013710;28;20041;-81
2022/05/27 06:56:28;;;;;;;28.90;27.20;;;;;;;22.26;49.00;101924.00;5028150;28;20041;-81
2022/05/27 06:58:54;;;;;;;29.05;27.27;;;;;;;22.26;48.72;101929.50;5021241;28;20438;-82
2022/05/27 07:01:19;;;;;;;28.30;26.75;;;;;;;22.26;49.28;101940.50;5019847;28;20037;-81
2022/05/27 07:03:45;;;;;;;29.92;28.27;;;;;;;22.29;48.86;101930.84;5014968;28;20045;-83
2022/05/27 07:06:12;;;;;;;29.85;28.30;;;;;;;22.24;49.38;101938.03;5035098;28;20033;-82
2022/05/27 07:08:38;;;;;;;28.52;26.77;;;;;;;22.30;49.17;101933.31;5038307;28;20061;-82
2022/05/27 07:11:04;;;;;;;26.98;25.30;;;;;;;22.33;49.17;101945.69;5022287;28;20045;-81
2022/05/27 07:13:31;;;;;;;28.88;27.05;;;;;;;22.29;50.28;101941.84;5029410;28;20053;-80
2022/05/27 07:15:56;;;;;;;28.70;26.98;;;;;;;22.29;50.62;101939.09;5028986;28;20379;-82
2022/05/27 07:18:22;;;;;;;29.90;28.40;;;;;;;22.28;50.46;101937.47;5038580;28;20049;-82
2022/05/27 07:20:49;;;;;;;30.40;28.27;;;;;;;22.28;50.75;101948.50;5042599;28;20033;-82
2022/05/27 07:23:14;;;;;;;28.17;26.63;;;;;;;22.28;50.89;101951.25;5046804;28;20120;-81
2022/05/27 07:25:40;;;;;;;29.40;27.27;;;;;;;22.36;51.38;101950.59;5031311;28;20510;-81
2022/05/27 07:28:07;;;;;;;30.15;28.25;;;;;;;22.36;52.11;101956.91;5038296;28;20037;-82
2022/05/27 07:30:34;;;;;;;31.55;29.13;;;;;;;22.34;52.01;101953.63;5035129;28;20025;-79
2022/05/27 07:33:00;;;;;;;71.95;41.60;;;;;;;22.37;52.16;101952.22;5035743;28;20048;-76
2022/05/27 07:35:25;;;;;;;40.75;33.00;;;;;;;22.34;52.31;101958.31;5028010;28;20373;-80
2022/05/27 07:37:51;;;;;;;35.75;31.90;;;;;;;22.37;52.00;101954.97;5037660;28;20391;-79
2022/05/27 07:40:17;;;;;;;37.05;33.33;;;;;;;22.37;52.67;101954.97;5015905;28;20406;-77
2022/05/27 07:42:42;;;;;;;36.88;33.53;;;;;;;22.39;52.50;101955.50;5027510;28;20038;-76
2022/05/27 07:45:11;;;;;;;36.28;33.28;;;;;;;22.39;51.89;101955.50;5025762;28;20042;-77
2022/05/27 07:47:36;;;;;;;33.40;30.92;;;;;;;22.41;51.17;101954.09;5024680;28;20030;-77
2022/05/27 07:50:03;;;;;;;32.78;29.90;;;;;;;22.43;51.37;101951.06;5033319;28;20059;-78
2022/05/27 07:52:29;;;;;;;31.88;29.40;;;;;;;22.47;50.77;101947.41;5027561;28;20025;-81
2022/05/27 07:54:55;;;;;;;32.83;30.85;;;;;;;22.50;50.05;101947.94;5028585;28;20046;-82
2022/05/27 07:57:25;;;;;;;31.33;29.33;;;;;;;22.49;49.37;101951.81;5025005;28;20103;-82
2022/05/27 08:00:04;;;;;;;32.50;30.10;;;;;;;22.46;49.29;101959.53;5029455;28;20061;-82
2022/05/27 08:02:30;;;;;;;31.50;28.92;;;;;;;22.44;48.98;101953.50;5027993;28;20204;-82
2022/05/27 08:04:57;;;;;;;31.67;29.67;;;;;;;22.38;47.91;101956.63;5030473;28;20033;-83
2022/05/27 08:07:23;;;;;;;31.40;29.35;;;;;;;22.39;48.53;101967.31;5025148;28;20485;-82
2022/05/27 08:09:48;;;;;;;31.45;29.33;;;;;;;22.39;47.46;101972.84;5028453;28;20091;-82
2022/05/27 08:12:14;;;;;;;30.02;27.95;;;;;;;22.38;47.45;101970.38;5028706;28;20048;-82
2022/05/27 08:14:39;;;;;;;30.55;28.85;;;;;;;22.35;46.83;101971.78;4997172;28;20088;-84
2022/05/27 08:17:05;;;;;;;31.27;28.95;;;;;;;22.34;47.33;101978.41;5029326;28;20076;-87
2022/05/27 08:19:30;;;;;;;29.27;27.33;;;;;;;22.36;46.97;101976.19;5031613;28;20033;-84
2022/05/27 08:21:56;;;;;;;30.42;28.45;;;;;;;22.34;46.39;101969.31;5040706;28;20052;-86
2022/05/27 08:24:21;;;;;;;29.55;27.70;;;;;;;22.32;46.49;101972.34;5030403;28;20036;-86
2022/05/27 08:26:47;;;;;;;30.00;27.92;;;;;;;22.32;46.06;101991.63;5030592;28;20041;-83
2022/05/27 08:29:13;;;;;;;29.45;27.80;;;;;;;22.28;46.03;101984.28;5013066;28;20033;-83
2022/05/27 08:31:39;;;;;;;30.40;28.60;;;;;;;22.28;46.08;101992.53;5045895;28;20098;-82
2022/05/27 08:39:37;;;;;;;29.60;27.52;;;;;;;22.20;45.24;101999.47;5015602;28;20517;-82
2022/05/27 08:42:25;;;;;;;30.67;28.77;;;;;;;22.17;45.68;101991.75;5024720;28;20037;-84
2022/05/27 08:45:00;;;;;;;29.88;28.00;;;;;;;22.21;45.93;101992.84;5035477;28;20432;-84
2022/05/27 08:47:34;;;;;;;29.58;27.50;;;;;;;22.20;45.25;101994.78;5026030;28;20026;-78
2022/05/27 08:50:09;;;;;;;29.00;27.30;;;;;;;22.14;45.96;101993.16;5024593;28;20044;-79
2022/05/27 08:52:45;;;;;;;29.33;27.70;;;;;;;22.16;45.45;102003.88;5034464;28;20025;-84
2022/05/27 09:01:20;;;;;;;27.65;25.92;;;;;;;22.15;44.39;101996.72;5019416;28;20032;-84
2022/05/27 09:03:53;;;;;;;29.08;27.30;;;;;;;22.14;43.26;101995.91;5013375;28;20123;-84
2022/05/27 09:06:31;;;;;;;29.33;27.38;;;;;;;22.09;43.57;101998.72;5043488;28;20095;-85
2022/05/27 09:08:56;;;;;;;28.88;27.08;;;;;;;22.16;44.25;102017.66;5043249;28;20586;-82
2022/05/27 09:11:36;;;;;;;30.17;28.27;;;;;;;22.10;44.53;102007.78;5037173;28;20109;-84
2022/05/27 09:14:14;;;;;;;28.50;26.45;;;;;;;22.13;43.80;102016.28;5019309;28;20036;-83
2022/05/27 09:16:46;;;;;;;28.02;26.30;;;;;;;22.16;42.22;102012.16;5035872;28;20079;-84
2022/05/27 09:19:20;;;;;;;30.17;28.00;;;;;;;22.09;43.50;102011.66;5047338;28;20068;-84
2022/05/27 09:22:24;;;;;;;28.45;26.45;;;;;;;22.05;43.55;102014.19;5014560;28;20517;-84
2022/05/27 09:24:58;;;;;;;27.35;25.75;;;;;;;22.09;43.13;102019.91;5022352;28;20025;-85
2022/05/27 09:27:23;;;;;;;28.38;26.38;;;;;;;22.07;42.62;102022.94;5030746;28;20049;-85
2022/05/27 09:30:15;;;;;;;28.38;26.33;;;;;;;22.03;41.99;102032.91;5016800;28;20038;-84
2022/05/27 09:32:52;;;;;;;29.80;27.65;;;;;;;22.03;42.95;102032.91;5028763;28;20049;-85
2022/05/27 09:35:30;;;;;;;27.45;25.75;;;;;;;22.05;41.57;102027.94;5023581;28;20576;-85
2022/05/27 09:38:01;;;;;;;29.90;27.63;;;;;;;22.01;42.07;102030.44;5033703;28;20037;-85
2022/05/27 09:40:42;;;;;;;28.20;26.60;;;;;;;22.02;41.97;102029.34;5050299;28;20473;-85
2022/05/27 09:43:28;;;;;;;29.63;27.48;;;;;;;22.02;42.15;102031.25;5033153;28;20038;-85
2022/05/27 09:46:15;;;;;;;28.77;27.05;;;;;;;22.01;41.70;102046.13;5027119;28;20041;-85
2022/05/27 09:48:41;;;;;;;28.98;26.85;;;;;;;21.98;41.40;102046.72;5047434;28;20492;-84
2022/05/27 09:51:09;;;;;;;29.63;27.58;;;;;;;21.98;41.83;102038.44;5032753;28;20025;-85
2022/05/27 09:53:48;;;;;;;27.88;26.08;;;;;;;21.97;41.88;102043.13;5033765;28;20133;-85
2022/05/27 09:56:15;;;;;;;30.00;28.08;;;;;;;21.98;41.49;102047.53;5048121;28;20071;-82
2022/05/27 09:58:46;;;;;;;27.73;26.02;;;;;;;21.98;41.79;102033.75;5018226;28;20125;-85
2022/05/27 10:01:28;;;;;;;29.08;26.98;;;;;;;21.98;41.74;102031.00;5033290;28;20474;-85
2022/05/27 10:04:08;;;;;;;29.15;27.15;;;;;;;21.99;41.16;102040.91;5014669;28;20061;-85
2022/05/27 10:06:36;;;;;;;29.35;27.63;;;;;;;21.98;40.62;102041.19;5029349;28;20511;-83
2022/05/27 10:09:08;;;;;;;28.67;26.87;;;;;;;22.00;41.12;102047.25;5032421;28;20064;-84
2022/05/27 10:11:46;;;;;;;29.33;27.15;;;;;;;21.98;41.13;102042.00;5030126;28;20603;-84
2022/05/27 10:14:28;;;;;;;28.95;26.88;;;;;;;21.96;41.50;102040.66;5047980;28;20040;-84
2022/05/27 10:17:09;;;;;;;28.38;26.48;;;;;;;21.95;40.39;102050.03;5028442;28;20037;-84
2022/05/27 10:19:37;;;;;;;29.10;27.17;;;;;;;21.95;40.35;102056.34;5031117;28;20041;-84
2022/05/27 10:22:07;;;;;;;28.85;26.92;;;;;;;21.94;40.34;102048.38;5019387;28;20057;-84
2022/05/27 10:24:44;;;;;;;29.27;27.45;;;;;;;21.96;40.60;102041.47;5059031;28;20029;-85
2022/05/27 10:27:21;;;;;;;32.53;30.08;;;;;;;21.94;40.51;102040.13;5016862;28;20490;-85
2022/05/27 10:29:59;;;;;;;28.30;26.23;;;;;;;21.96;40.44;102051.66;5034290;28;20454;-85
2022/05/27 10:32:40;;;;;;;29.17;27.50;;;;;;;21.95;40.96;102066.53;5012605;28;20069;-85
2022/05/27 10:35:09;;;;;;;28.02;26.13;;;;;;;21.94;40.52;102048.38;5020627;28;20040;-85
2022/05/27 10:38:15;;;;;;;28.65;26.98;;;;;;;21.95;40.06;102048.09;5013576;28;20037;-85
2022/05/27 10:41:07;;;;;;;29.20;27.40;;;;;;;21.94;40.44;102053.88;5035508;28;20038;-85
2022/05/27 10:44:00;;;;;;;30.52;28.35;;;;;;;21.90;39.98;102052.81;5021573;28;20056;-85
2022/05/27 10:46:41;;;;;;;27.20;25.45;;;;;;;21.94;40.39;102054.69;5030950;28;20057;-85
2022/05/27 10:49:22;;;;;;;28.15;26.23;;;;;;;21.94;40.39;102049.19;5018612;28;20026;-85
2022/05/27 10:52:06;;;;;;;28.17;25.98;;;;;;;21.97;39.92;102048.63;5029291;28;20033;-87
2022/05/27 10:54:44;;;;;;;27.63;25.70;;;;;;;21.94;39.30;102053.88;5033160;28;20045;-84
2022/05/27 11:03:33;;;;;;;27.83;25.98;;;;;;;21.98;40.82;102054.97;5028148;28;20057;-83
2022/05/27 11:06:09;;;;;;;28.42;26.70;;;;;;;21.99;41.25;102057.41;4986486;28;20470;-84
2022/05/27 11:08:58;;;;;;;26.92;25.05;;;;;;;21.98;41.08;102050.28;5039088;28;20045;-84
2022/05/27 11:11:42;;;;;;;;;;;;;;;22.02;40.48;102047.75;5052879;28;20121;-84
2022/05/27 11:17:16;;;;;;;28.40;26.67;;;;;;;21.94;40.37;102060.19;5013066;28;20048;-86
2022/05/27 11:20:00;;;;;;;27.98;25.90;;;;;;;21.93;39.92;102058.56;5052588;28;20183;-85
2022/05/27 11:22:31;;;;;;;29.48;27.42;;;;;;;21.91;39.58;102054.47;5028178;28;20064;-85
2022/05/27 11:25:19;;;;;;;26.83;25.13;;;;;;;21.94;39.69;102062.94;5021564;28;20405;-85
2022/05/27 11:28:18;;;;;;;27.77;26.10;;;;;;;21.92;39.04;102076.16;5020656;28;20041;-86
2022/05/27 11:31:03;;;;;;;29.55;27.35;;;;;;;21.91;38.76;102062.72;5029645;28;20313;-86
2022/05/27 11:34:02;;;;;;;30.00;28.15;;;;;;;21.91;38.82;102071.78;5024052;28;20482;-82
2022/05/27 11:36:41;;;;;;;29.60;27.55;;;;;;;21.91;39.07;102068.22;5032658;28;20032;-85
2022/05/27 11:39:19;;;;;;;28.33;26.52;;;;;;;21.91;39.03;102077.28;5054655;28;20030;-86
2022/05/27 11:42:13;;;;;;;28.55;26.70;;;;;;;21.95;39.38;102077.56;5024715;28;20034;-86
2022/05/27 11:44:57;;;;;;;28.92;27.17;;;;;;;21.92;38.88;102081.66;5034739;28;20137;-87
2022/05/27 11:47:46;;;;;;;28.98;27.00;;;;;;;21.90;38.63;102092.16;5029143;28;20029;-88
2022/05/27 11:50:30;;;;;;;29.67;27.80;;;;;;;21.89;38.13;102079.50;5036807;28;20033;-86
2022/05/27 11:53:02;;;;;;;29.38;27.60;;;;;;;21.90;38.56;102072.91;5033440;28;20029;-86
2022/05/27 11:55:45;;;;;;;28.38;26.50;;;;;;;21.94;37.58;102070.38;5024523;28;20501;-87
2022/05/27 11:58:19;;;;;;;29.05;27.27;;;;;;;21.91;37.70;102068.22;5034391;28;20041;-88
2022/05/27 12:00:52;;;;;;;29.98;27.92;;;;;;;21.92;36.89;102080.84;5031569;28;20440;-86
2022/05/27 12:03:21;;;;;;;30.92;28.90;;;;;;;21.88;36.47;102086.13;5017322;28;20080;-86
2022/05/27 12:05:51;;;;;;;28.58;26.83;;;;;;;21.81;37.12;102086.44;5021668;28;20064;-87
2022/05/27 12:08:38;;;;;;;31.20;29.00;;;;;;;21.83;36.81;102086.97;5033845;28;20128;-87